• Join FlightAware (Why Join?)
  • Login
  • US Flag 
01:18PM EDT


 

Airport Tracker/Info


-or-


 

Live Flight TrackerFlight Track Log ✈ AAR8735 ✈ 27-Jul-2013 ✈ RKSS / GMP - RKJY / RSU

Flight Track Log - Related Links

Times and Time Zones

All times are in EDT time to prevent confusion due to time zone crossing. See the AAR8735 flight status page for this flight to view local times or setup timezone preferences in your user account.

Time Position Orientation Groundspeed Altitude Reporting Facility
EDT Latitude Longitude Course Direction KTS MPH feet Rate Location/Type
02:32AM 37.4980 126.8670 148° Southeast 207 238 4,000  Level FlightAware
02:32AM 37.4840 126.8730 161° South 228 262 4,400 1,620 Climbing FlightAware
02:32AM 37.4750 126.8760 165° South 238 274 4,600 1,860 Climbing FlightAware
02:33AM 37.4340 126.8880 167° South 278 320 5,800 1,740 Climbing FlightAware
02:33AM 37.3990 126.8970 168° South 282 325 6,300 1,080 Climbing FlightAware
02:33AM 37.3850 126.9000 170° South 282 325 6,500 2,400 Climbing FlightAware
02:34AM 37.3430 126.9120 167° South 298 343 8,100 2,880 Climbing FlightAware
02:34AM 37.2880 126.9270 168° South 307 353 10,200 2,220 Climbing FlightAware
02:35AM 37.2260 126.9440 168° South 349 402 11,300 1,680 Climbing FlightAware
02:36AM 37.1420 126.9660 168° South 389 448 12,700 2,100 Climbing FlightAware
02:37AM 37.0270 126.9560 184° South 387 445 15,200 1,980 Climbing FlightAware
02:38AM 36.9700 126.9340 197° South 395 455 16,000 600 Climbing FlightAware
02:38AM 36.8920 126.9010 199° South 397 457 16,000  Level FlightAware
02:39AM 36.8030 126.8610 200° South 398 458 16,000  Level FlightAware
02:40AM 36.7320 126.8290 200° South 398 458 16,000  Level FlightAware
02:41AM 36.6790 126.8050 200° South 398 458 16,000  Level FlightAware
02:41AM 36.6440 126.7890 200° South 398 458 16,000  Level FlightAware
02:42AM 36.5680 126.7540 200° South 398 458 16,000  Level FlightAware
02:43AM 36.4970 126.7220 200° South 398 458 16,000  Level FlightAware
02:45AM 36.3292 126.8143 156° South  Level Estimated
02:46AM 36.2342 126.8664 156° South  Level Estimated
02:47AM 36.1391 126.9184 156° South  Level Estimated
02:48AM 36.0441 126.9702 156° South  Level Estimated
02:49AM 35.9490 127.0219 156° South  Level Estimated
02:50AM 35.8539 127.0735 156° South  Level Estimated
02:51AM 35.7588 127.1250 156° South  Level Estimated
02:52AM 35.6636 127.1763 156° South  Level Estimated
02:53AM 35.5684 127.2275 156° South  Level Estimated
02:54AM 35.4732 127.2786 156° South  Level Estimated
02:55AM 35.3780 127.3296 156° South  Level Estimated
02:56AM 35.2828 127.3805 156° South  Level Estimated
02:57AM 35.1875 127.4312 156° South  Level Estimated
02:58AM 35.0923 127.4818 157° South  Level Estimated
02:59AM 34.9969 127.5323 157° South  Level Estimated
03:00AM 34.9016 127.5827 157° South  Level Estimated
03:01AM 34.8398 127.6153 157° South  Level Estimated
03:02AM 34.8398 127.6153 180° South  Level Estimated
03:03AM 34.8398 127.6153 180° South  Level Estimated
03:04AM 34.8398 127.6153 180° South  Level Estimated
03:05AM 34.8398 127.6153 180° South  Level Estimated
03:06AM 34.8398 127.6153 180° South  Level Estimated
03:07AM 34.8398 127.6153 180° South  Level Estimated
03:08AM 34.8398 127.6153 180° South  Level Estimated
03:09AM 34.8398 127.6153 180° South  Level Estimated
03:10AM 34.8398 127.6153 180° South  Level Estimated
03:11AM 34.8398 127.6153 180° South  Level Estimated
03:12AM 34.8398 127.6153 180° South  Level Estimated
03:13AM 34.8398 127.6153 180° South  Level Estimated